createdAt,value
2022-10-30T00:02:40.250Z,7.40
2022-10-30T00:05:46.140Z,8.43
2022-10-30T00:08:50.228Z,7.63
2022-10-30T00:11:54.131Z,7.55
2022-10-30T00:14:57.995Z,7.68
2022-10-30T00:18:02.644Z,7.97
2022-10-30T00:21:08.933Z,7.57
2022-10-30T00:24:12.763Z,7.72
2022-10-30T00:27:16.814Z,8.00
2022-10-30T00:30:20.999Z,7.90
2022-10-30T00:33:25.003Z,7.40
2022-10-30T00:36:28.865Z,7.80
2022-10-30T00:39:32.421Z,8.05
2022-10-30T00:42:36.336Z,8.00
2022-10-30T00:45:40.444Z,7.43
2022-10-30T00:48:48.479Z,8.00
2022-10-30T00:51:54.483Z,7.70
2022-10-30T00:55:03.343Z,7.63
2022-10-30T00:58:13.311Z,7.60
2022-10-30T01:01:22.236Z,7.57
2022-10-30T01:04:29.935Z,7.30
2022-10-30T01:07:34.475Z,8.02
2022-10-30T01:10:39.230Z,7.20
2022-10-30T01:13:46.994Z,7.88
2022-10-30T01:17:18.461Z,7.05
2022-10-30T01:20:40.899Z,7.80
2022-10-30T01:24:00.067Z,7.28
2022-10-30T01:27:30.852Z,7.47
2022-10-30T01:30:56.444Z,7.45
2022-10-30T01:34:14.009Z,7.85
2022-10-30T01:37:21.016Z,7.55
2022-10-30T01:40:25.916Z,7.32
2022-10-30T01:43:31.630Z,6.75
2022-10-30T01:46:47.126Z,7.25
2022-10-30T01:50:15.734Z,7.18
2022-10-30T01:53:40.836Z,7.88
2022-10-30T01:57:34.840Z,6.82
2022-10-30T02:00:42.196Z,7.15
2022-10-30T02:03:46.685Z,6.75
2022-10-30T02:06:51.411Z,6.95
2022-10-30T02:09:55.720Z,6.43
2022-10-30T02:12:59.894Z,6.80
2022-10-30T02:16:04.307Z,7.07
2022-10-30T02:19:08.384Z,6.63
2022-10-30T02:22:12.753Z,7.05
2022-10-30T02:25:16.751Z,7.07
2022-10-30T02:28:20.789Z,7.03
2022-10-30T02:31:24.629Z,6.70
2022-10-30T02:34:29.077Z,6.20
2022-10-30T02:37:35.615Z,6.30
2022-10-30T02:40:39.405Z,6.85
2022-10-30T02:43:43.278Z,6.90
2022-10-30T02:46:47.108Z,6.40
2022-10-30T02:49:51.073Z,6.63
2022-10-30T02:52:55.648Z,6.13
2022-10-30T02:56:04.653Z,6.28
2022-10-30T02:59:08.458Z,7.13
2022-10-30T03:02:12.674Z,6.93
2022-10-30T03:05:16.632Z,6.63
2022-10-30T03:08:20.760Z,6.50
2022-10-30T03:11:24.694Z,6.70
2022-10-30T03:14:28.448Z,6.00
2022-10-30T03:17:32.474Z,6.00
2022-10-30T03:20:36.607Z,7.13
2022-10-30T03:23:40.828Z,6.80
2022-10-30T03:26:45.271Z,6.88
2022-10-30T03:29:49.309Z,6.60
2022-10-30T03:32:53.117Z,6.28
2022-10-30T03:35:57.534Z,6.13
2022-10-30T03:39:01.696Z,6.80
2022-10-30T03:42:05.589Z,6.70
2022-10-30T03:45:10.061Z,6.32
2022-10-30T03:48:13.986Z,6.07
2022-10-30T03:51:17.802Z,6.35
2022-10-30T03:54:21.528Z,6.63
2022-10-30T03:57:25.344Z,6.20
2022-10-30T04:00:29.222Z,6.60
2022-10-30T04:03:34.393Z,6.90
2022-10-30T04:06:38.697Z,6.55
2022-10-30T04:09:45.466Z,6.47
2022-10-30T04:12:49.249Z,6.53
2022-10-30T04:15:55.985Z,6.30
2022-10-30T04:19:01.034Z,6.60
2022-10-30T04:22:04.807Z,6.75
2022-10-30T04:25:09.360Z,7.10
2022-10-30T04:28:14.090Z,6.85
2022-10-30T04:31:18.128Z,6.10
2022-10-30T04:34:22.291Z,6.85
2022-10-30T04:37:26.494Z,6.55
2022-10-30T04:40:32.985Z,6.30
2022-10-30T04:43:37.117Z,6.43
2022-10-30T04:46:40.802Z,5.80
2022-10-30T04:49:44.919Z,5.80
2022-10-30T04:52:49.135Z,6.15
2022-10-30T04:55:54.342Z,5.82
2022-10-30T04:58:58.033Z,5.90
2022-10-30T05:02:01.976Z,5.78
2022-10-30T05:05:06.536Z,5.97
2022-10-30T05:08:10.966Z,6.00
2022-10-30T05:11:15.280Z,5.40
2022-10-30T05:14:19.194Z,5.47
2022-10-30T05:17:23.468Z,5.30
2022-10-30T05:20:27.133Z,5.53
2022-10-30T05:23:30.957Z,5.10
2022-10-30T05:26:34.876Z,5.50
2022-10-30T05:29:38.638Z,5.22
2022-10-30T05:32:42.563Z,5.78
2022-10-30T05:35:46.563Z,5.50
2022-10-30T05:38:50.992Z,5.82
2022-10-30T05:41:54.733Z,5.28
2022-10-30T05:45:01.250Z,5.63
2022-10-30T05:48:06.943Z,5.50
2022-10-30T05:51:11.020Z,5.68
2022-10-30T05:54:14.811Z,5.40
2022-10-30T05:57:18.542Z,5.40
2022-10-30T06:00:22.521Z,4.88
2022-10-30T06:03:26.563Z,5.70
2022-10-30T06:06:30.487Z,5.90
2022-10-30T06:09:34.473Z,5.43
2022-10-30T06:12:38.136Z,5.40
2022-10-30T06:15:41.960Z,5.47
2022-10-30T06:18:45.730Z,5.60
2022-10-30T06:21:49.577Z,5.15
2022-10-30T06:24:53.598Z,5.32
2022-10-30T06:27:58.802Z,5.45
2022-10-30T06:31:02.956Z,5.40
2022-10-30T06:34:07.205Z,5.72
2022-10-30T06:37:11.658Z,6.00
2022-10-30T06:40:16.738Z,5.57
2022-10-30T06:43:20.972Z,5.30
2022-10-30T06:46:27.467Z,5.95
2022-10-30T06:49:34.511Z,5.72
2022-10-30T06:52:39.061Z,5.03
2022-10-30T06:55:42.980Z,5.22
2022-10-30T06:58:47.158Z,5.30
2022-10-30T07:01:54.244Z,5.78
2022-10-30T07:05:01.753Z,5.32
2022-10-30T07:08:05.995Z,5.60
2022-10-30T07:11:10.093Z,5.18
2022-10-30T07:14:13.975Z,4.82
2022-10-30T07:17:17.927Z,5.63
2022-10-30T07:20:22.196Z,5.47
2022-10-30T07:23:26.296Z,5.18
2022-10-30T07:26:30.409Z,5.40
2022-10-30T07:29:34.698Z,5.30
2022-10-30T07:32:38.914Z,4.70
2022-10-30T07:35:43.206Z,5.55
2022-10-30T07:38:51.438Z,5.65
2022-10-30T07:41:55.393Z,4.90
2022-10-30T07:44:59.828Z,5.20
2022-10-30T07:48:04.284Z,4.88
2022-10-30T07:51:08.691Z,5.50
2022-10-30T07:54:12.883Z,5.30
2022-10-30T07:57:16.895Z,5.07
2022-10-30T08:00:21.128Z,5.43
2022-10-30T08:03:25.065Z,4.78
2022-10-30T08:06:29.069Z,4.60
2022-10-30T08:09:32.823Z,4.70
2022-10-30T08:12:38.312Z,4.55
2022-10-30T08:15:42.915Z,4.68
2022-10-30T08:18:47.245Z,4.95
2022-10-30T08:21:54.816Z,4.82
2022-10-30T08:25:01.966Z,4.70
2022-10-30T08:28:07.457Z,4.53
2022-10-30T08:31:11.355Z,4.68
2022-10-30T08:34:15.193Z,4.90
2022-10-30T08:37:19.284Z,4.70
2022-10-30T08:40:24.509Z,5.10
2022-10-30T08:43:28.727Z,4.90
2022-10-30T08:46:32.751Z,5.20
2022-10-30T08:49:36.580Z,4.78
2022-10-30T08:52:40.577Z,4.57
2022-10-30T08:55:44.583Z,5.10
2022-10-30T08:58:50.446Z,5.32
2022-10-30T09:01:54.475Z,4.97
2022-10-30T09:04:58.591Z,4.80
2022-10-30T09:08:03.286Z,4.85
2022-10-30T09:11:07.304Z,4.85
2022-10-30T09:14:11.606Z,4.63
2022-10-30T09:17:15.813Z,5.03
2022-10-30T09:20:19.457Z,4.53
2022-10-30T09:23:23.485Z,4.35
2022-10-30T09:26:29.115Z,5.15
2022-10-30T09:29:33.510Z,4.75
2022-10-30T09:32:37.323Z,4.65
2022-10-30T09:35:41.103Z,5.00
2022-10-30T09:38:45.569Z,5.28
2022-10-30T09:42:17.474Z,4.28
2022-10-30T09:45:53.515Z,4.57
2022-10-30T09:49:19.451Z,4.20
2022-10-30T09:52:34.481Z,4.82
2022-10-30T09:55:55.623Z,4.10
2022-10-30T09:59:00.896Z,4.75
2022-10-30T10:02:26.353Z,3.95
2022-10-30T10:06:02.474Z,3.95
2022-10-30T10:09:17.081Z,4.75
2022-10-30T10:12:33.743Z,4.65
2022-10-30T10:15:45.732Z,4.00
2022-10-30T10:19:00.486Z,4.03
2022-10-30T10:22:17.287Z,4.30
2022-10-30T10:25:21.490Z,3.83
2022-10-30T10:28:44.452Z,4.65
2022-10-30T10:32:06.814Z,3.70
2022-10-30T10:35:37.873Z,4.30
2022-10-30T10:39:05.032Z,3.97
2022-10-30T10:42:35.256Z,4.00
2022-10-30T10:46:12.898Z,3.92
2022-10-30T10:49:24.920Z,4.65
2022-10-30T10:52:36.837Z,3.70
2022-10-30T10:55:44.277Z,3.90
2022-10-30T10:59:01.220Z,3.80
2022-10-30T11:02:05.578Z,4.28
2022-10-30T11:05:24.585Z,3.67
2022-10-30T11:08:31.216Z,4.32
2022-10-30T11:11:35.305Z,3.70
2022-10-30T11:14:39.651Z,4.00
2022-10-30T11:18:10.405Z,3.90
2022-10-30T11:21:23.670Z,3.50
2022-10-30T11:24:35.805Z,3.60
2022-10-30T11:27:39.875Z,4.00
2022-10-30T11:30:44.001Z,4.22
2022-10-30T11:33:48.496Z,3.80
2022-10-30T11:36:54.428Z,3.90
2022-10-30T11:40:21.027Z,4.15
2022-10-30T11:43:26.205Z,4.00
2022-10-30T11:46:30.158Z,3.90
2022-10-30T11:49:46.198Z,4.78
2022-10-30T11:52:55.294Z,3.95
2022-10-30T11:55:59.641Z,3.60
2022-10-30T11:59:05.510Z,3.60
2022-10-30T12:02:28.363Z,4.40
2022-10-30T12:05:32.616Z,3.90
2022-10-30T12:08:36.314Z,3.90
2022-10-30T12:11:44.405Z,4.20
2022-10-30T12:14:48.357Z,3.78
2022-10-30T12:18:16.363Z,4.00
2022-10-30T12:21:20.998Z,3.83
2022-10-30T12:24:34.502Z,4.40
2022-10-30T12:27:38.731Z,3.67
2022-10-30T12:31:00.216Z,3.70
2022-10-30T12:34:22.113Z,4.10
2022-10-30T12:37:32.254Z,3.95
2022-10-30T12:40:42.761Z,3.78
2022-10-30T12:43:55.911Z,3.70
2022-10-30T12:47:18.331Z,3.95
2022-10-30T12:51:03.956Z,3.83
2022-10-30T12:54:22.051Z,4.10
2022-10-30T12:57:36.027Z,3.42
2022-10-30T13:00:54.621Z,4.20
2022-10-30T13:04:39.521Z,4.10
2022-10-30T13:07:52.436Z,4.30
2022-10-30T13:11:04.562Z,4.32
2022-10-30T13:14:19.037Z,3.90
2022-10-30T13:17:23.692Z,4.30
2022-10-30T13:20:30.615Z,4.03
2022-10-30T13:23:40.116Z,3.88
2022-10-30T13:26:58.645Z,4.00
2022-10-30T13:30:10.542Z,3.70
2022-10-30T13:33:31.649Z,3.70
2022-10-30T13:36:55.887Z,4.03
2022-10-30T13:40:17.295Z,4.13
2022-10-30T13:43:41.828Z,3.78
2022-10-30T13:47:08.434Z,4.55
2022-10-30T13:50:50.959Z,3.95
2022-10-30T13:54:08.637Z,4.40
2022-10-30T13:57:32.809Z,5.00
2022-10-30T14:00:51.726Z,5.63
2022-10-30T14:04:01.939Z,5.20
2022-10-30T14:07:33.448Z,4.95
2022-10-30T14:10:40.376Z,4.90
2022-10-30T14:14:03.453Z,4.18
2022-10-30T14:17:14.372Z,3.90
2022-10-30T14:20:26.573Z,4.57
2022-10-30T14:23:35.113Z,4.30
2022-10-30T14:26:49.979Z,3.60
2022-10-30T14:29:57.935Z,3.95
2022-10-30T14:33:02.497Z,3.92
2022-10-30T14:36:46.427Z,3.63
2022-10-30T14:39:51.721Z,3.75
2022-10-30T14:43:02.231Z,3.40
2022-10-30T14:46:30.024Z,3.83
2022-10-30T14:49:43.011Z,3.67
2022-10-30T14:53:21.498Z,4.22
2022-10-30T14:56:36.412Z,3.60
2022-10-30T14:59:40.199Z,4.00
2022-10-30T15:03:14.825Z,4.18
2022-10-30T15:06:43.501Z,3.92
2022-10-30T15:09:47.701Z,3.58
2022-10-30T15:13:02.378Z,3.90
2022-10-30T15:16:09.003Z,3.55
2022-10-30T15:19:15.626Z,3.80
2022-10-30T15:22:23.200Z,4.40
2022-10-30T15:25:34.466Z,4.20
2022-10-30T15:28:39.102Z,4.60
2022-10-30T15:31:43.084Z,5.57
2022-10-30T15:35:15.810Z,7.53
2022-10-30T15:38:19.736Z,6.38
2022-10-30T15:41:23.574Z,5.82
2022-10-30T15:44:31.895Z,6.38
2022-10-30T15:47:36.124Z,6.35
2022-10-30T15:50:44.696Z,5.78
2022-10-30T15:53:51.043Z,5.85
2022-10-30T15:57:36.545Z,5.88
2022-10-30T16:00:27.869Z,5.45
2022-10-30T16:03:32.729Z,6.05
2022-10-30T16:06:37.309Z,5.57
2022-10-30T16:09:52.616Z,6.10
2022-10-30T16:12:58.217Z,5.70
2022-10-30T16:16:04.013Z,6.53
2022-10-30T16:19:08.112Z,6.15
2022-10-30T16:22:16.920Z,6.05
2022-10-30T16:25:21.459Z,6.93
2022-10-30T16:28:29.986Z,6.20
2022-10-30T16:31:36.025Z,6.22
2022-10-30T16:34:41.700Z,6.53
2022-10-30T16:37:46.561Z,6.82
2022-10-30T16:40:51.443Z,6.95
2022-10-30T16:44:14.100Z,7.10
2022-10-30T16:47:18.378Z,7.50
2022-10-30T16:50:22.335Z,8.45
2022-10-30T16:53:27.812Z,7.15
2022-10-30T16:56:32.644Z,7.68
2022-10-30T16:59:43.965Z,8.02
2022-10-30T17:02:50.333Z,7.85
2022-10-30T17:06:04.748Z,8.00
2022-10-30T17:09:24.881Z,8.35
2022-10-30T17:12:29.581Z,8.70
2022-10-30T17:15:33.393Z,9.07
2022-10-30T17:18:38.517Z,10.75
2022-10-30T17:21:42.822Z,10.93
2022-10-30T17:24:47.715Z,11.45
2022-10-30T17:27:51.759Z,11.02
2022-10-30T17:30:56.468Z,11.50
2022-10-30T17:34:16.133Z,11.20
2022-10-30T17:37:20.320Z,11.40
2022-10-30T17:40:24.157Z,10.82
2022-10-30T17:43:30.029Z,10.50
2022-10-30T17:46:34.243Z,9.73
2022-10-30T17:49:38.264Z,10.10
2022-10-30T17:52:42.584Z,10.70
2022-10-30T17:55:51.668Z,10.57
2022-10-30T17:58:58.564Z,9.30
2022-10-30T18:02:02.567Z,9.40
2022-10-30T18:05:15.233Z,9.70
2022-10-30T18:08:19.353Z,9.73
2022-10-30T18:11:24.564Z,10.43
2022-10-30T18:14:28.316Z,9.73
2022-10-30T18:17:32.564Z,10.13
2022-10-30T18:20:36.627Z,10.30
2022-10-30T18:23:56.156Z,10.80
2022-10-30T18:26:59.825Z,10.55
2022-10-30T18:30:04.305Z,11.30
2022-10-30T18:33:10.706Z,10.85
2022-10-30T18:36:23.890Z,10.48
2022-10-30T18:39:27.956Z,11.38
2022-10-30T18:42:32.276Z,11.15
2022-10-30T18:45:38.117Z,11.57
2022-10-30T18:48:43.005Z,10.90
2022-10-30T18:51:47.333Z,11.07
2022-10-30T18:54:51.236Z,13.18
2022-10-30T18:57:55.153Z,12.63
2022-10-30T19:01:11.496Z,12.93
2022-10-30T19:04:21.644Z,12.23
2022-10-30T19:07:26.855Z,13.82
2022-10-30T19:10:33.890Z,12.80
2022-10-30T19:13:37.827Z,12.75
2022-10-30T19:16:41.977Z,12.07
2022-10-30T19:19:46.123Z,12.52
2022-10-30T19:22:50.024Z,12.60
2022-10-30T19:25:55.139Z,12.18
2022-10-30T19:28:58.993Z,12.30
2022-10-30T19:32:02.873Z,12.85
2022-10-30T19:35:07.762Z,13.00
2022-10-30T19:38:13.037Z,12.00
2022-10-30T19:41:16.988Z,12.73
2022-10-30T19:44:20.766Z,13.10
2022-10-30T19:47:24.635Z,28.42
2022-10-30T19:50:37.604Z,12.73
2022-10-30T19:53:41.307Z,11.95
2022-10-30T19:56:45.274Z,11.98
2022-10-30T19:59:49.323Z,11.75
2022-10-30T20:02:55.571Z,12.55
2022-10-30T20:05:59.758Z,12.90
2022-10-30T20:09:05.339Z,13.48
2022-10-30T20:12:09.434Z,11.82
2022-10-30T20:15:15.961Z,13.20
2022-10-30T20:18:23.243Z,12.35
2022-10-30T20:21:27.417Z,11.55
2022-10-30T20:24:31.951Z,10.82
2022-10-30T20:27:36.057Z,10.82
2022-10-30T20:30:40.409Z,11.10
2022-10-30T20:33:44.270Z,11.38
2022-10-30T20:36:48.567Z,11.70
2022-10-30T20:39:52.591Z,12.57
2022-10-30T20:43:02.662Z,11.32
2022-10-30T20:46:09.317Z,12.10
2022-10-30T20:49:18.095Z,12.73
2022-10-30T20:52:22.362Z,12.10
2022-10-30T20:55:27.171Z,12.77
2022-10-30T20:58:31.319Z,13.32
2022-10-30T21:01:35.345Z,12.70
2022-10-30T21:04:40.101Z,11.63
2022-10-30T21:07:44.041Z,12.75
2022-10-30T21:10:47.948Z,12.60
2022-10-30T21:13:56.298Z,11.77
2022-10-30T21:17:00.387Z,10.90
2022-10-30T21:20:04.695Z,10.02
2022-10-30T21:23:09.079Z,10.45
2022-10-30T21:26:13.355Z,9.25
2022-10-30T21:29:17.423Z,9.35
2022-10-30T21:32:21.356Z,8.85
2022-10-30T21:35:25.305Z,9.05
2022-10-30T21:38:29.455Z,8.93
2022-10-30T21:41:33.426Z,8.20
2022-10-30T21:44:37.336Z,8.55
2022-10-30T21:47:41.133Z,7.72
2022-10-30T21:50:45.008Z,7.80
2022-10-30T21:53:49.323Z,7.60
2022-10-30T21:56:53.282Z,7.38
2022-10-30T22:00:00.022Z,7.20
2022-10-30T22:03:09.912Z,7.82
2022-10-30T22:06:16.078Z,8.00
2022-10-30T22:09:19.992Z,7.75
2022-10-30T22:12:23.770Z,9.15
2022-10-30T22:15:27.785Z,8.05
2022-10-30T22:18:31.777Z,7.35
2022-10-30T22:21:35.854Z,5.97
2022-10-30T22:24:39.820Z,7.00
2022-10-30T22:27:45.810Z,6.72
2022-10-30T22:30:50.641Z,6.53
2022-10-30T22:33:54.452Z,7.07
2022-10-30T22:36:58.484Z,6.57
2022-10-30T22:40:02.648Z,6.97
2022-10-30T22:43:06.799Z,6.07
2022-10-30T22:46:11.690Z,5.93
2022-10-30T22:49:16.635Z,6.10
2022-10-30T22:52:20.603Z,6.20
2022-10-30T22:55:24.856Z,6.15
2022-10-30T22:58:29.949Z,6.28
2022-10-30T23:01:36.719Z,5.72
2022-10-30T23:04:41.968Z,6.40
2022-10-30T23:07:46.013Z,6.57
2022-10-30T23:10:53.803Z,6.47
2022-10-30T23:13:57.737Z,6.88
2022-10-30T23:17:01.701Z,6.43
2022-10-30T23:20:07.532Z,6.57
2022-10-30T23:23:12.153Z,6.72
2022-10-30T23:26:19.014Z,6.65
2022-10-30T23:29:23.099Z,6.15
2022-10-30T23:32:26.936Z,6.05
2022-10-30T23:35:30.929Z,5.80
2022-10-30T23:38:34.593Z,6.25
2022-10-30T23:41:38.323Z,5.78
2022-10-30T23:44:42.092Z,6.82
2022-10-30T23:47:45.909Z,5.80
2022-10-30T23:50:49.943Z,5.85
2022-10-30T23:53:54.279Z,5.70
2022-10-30T23:56:58.216Z,5.75
